sensor_id;sensor_type;location;lat;lon;timestamp;pressure;altitude;pressure_sealevel;temperature;humidity
50484;BME280;36409;52.168;20.878;2023-04-21T00:01:30;100898.03;;;9.92;49.67
50484;BME280;36409;52.168;20.878;2023-04-21T00:04:02;100898.05;;;9.90;50.24
50484;BME280;36409;52.168;20.878;2023-04-21T00:06:35;100897.17;;;9.88;49.63
50484;BME280;36409;52.168;20.878;2023-04-21T00:09:07;100897.19;;;9.83;50.11
50484;BME280;36409;52.168;20.878;2023-04-21T00:11:41;100895.47;;;9.78;50.47
50484;BME280;36409;52.168;20.878;2023-04-21T00:14:13;100897.19;;;9.74;49.85
50484;BME280;36409;52.168;20.878;2023-04-21T00:16:46;100891.12;;;9.70;49.91
50484;BME280;36409;52.168;20.878;2023-04-21T00:19:23;100894.59;;;9.69;50.52
50484;BME280;36409;52.168;20.878;2023-04-21T00:21:56;100892.87;;;9.67;50.21
50484;BME280;36409;52.168;20.878;2023-04-21T00:27:04;100889.41;;;9.57;49.95
50484;BME280;36409;52.168;20.878;2023-04-21T00:29:36;100887.69;;;9.53;50.33
50484;BME280;36409;52.168;20.878;2023-04-21T00:32:08;100879.00;;;9.48;50.80
50484;BME280;36409;52.168;20.878;2023-04-21T00:34:41;100881.63;;;9.41;50.59
50484;BME280;36409;52.168;20.878;2023-04-21T00:37:15;100884.23;;;9.38;50.71
50484;BME280;36409;52.168;20.878;2023-04-21T00:39:47;100881.62;;;9.35;50.79
50484;BME280;36409;52.168;20.878;2023-04-21T00:42:20;100881.64;;;9.32;50.71
50484;BME280;36409;52.168;20.878;2023-04-21T00:44:53;100882.50;;;9.28;51.12
50484;BME280;36409;52.168;20.878;2023-04-21T00:47:26;100886.84;;;9.26;51.12
50484;BME280;36409;52.168;20.878;2023-04-21T00:50:00;100885.12;;;9.19;50.93
50484;BME280;36409;52.168;20.878;2023-04-21T00:52:34;100883.38;;;9.13;50.93
50484;BME280;36409;52.168;20.878;2023-04-21T00:55:08;100882.52;;;9.09;51.17
50484;BME280;36409;52.168;20.878;2023-04-21T00:57:39;100885.97;;;9.02;50.87
50484;BME280;36409;52.168;20.878;2023-04-21T01:00:14;100885.12;;;8.97;51.06
50484;BME280;36409;52.168;20.878;2023-04-21T01:02:46;100879.03;;;8.90;51.24
50484;BME280;36409;52.168;20.878;2023-04-21T01:05:19;100881.61;;;8.84;51.23
50484;BME280;36409;52.168;20.878;2023-04-21T01:07:52;100885.97;;;8.77;51.42
50484;BME280;36409;52.168;20.878;2023-04-21T01:10:24;100879.88;;;8.71;51.34
50484;BME280;36409;52.168;20.878;2023-04-21T01:12:57;100879.86;;;8.63;51.47
50484;BME280;36409;52.168;20.878;2023-04-21T01:15:29;100883.31;;;8.59;51.27
50484;BME280;36409;52.168;20.878;2023-04-21T01:18:02;100874.64;;;8.54;51.57
50484;BME280;36409;52.168;20.878;2023-04-21T01:20:34;100878.92;;;8.47;51.92
50484;BME280;36409;52.168;20.878;2023-04-21T01:23:09;100877.17;;;8.41;51.74
50484;BME280;36409;52.168;20.878;2023-04-21T01:25:41;100879.77;;;8.37;51.83
50484;BME280;36409;52.168;20.878;2023-04-21T01:28:14;100880.59;;;8.29;51.67
50484;BME280;36409;52.168;20.878;2023-04-21T01:30:46;100872.79;;;8.22;52.14
50484;BME280;36409;52.168;20.878;2023-04-21T01:33:19;100883.12;;;8.12;52.10
50484;BME280;36409;52.168;20.878;2023-04-21T01:35:52;100882.23;;;8.06;52.36
50484;BME280;36409;52.168;20.878;2023-04-21T01:38:28;100884.81;;;7.99;52.26
50484;BME280;36409;52.168;20.878;2023-04-21T01:41:02;100880.47;;;7.92;52.51
50484;BME280;36409;52.168;20.878;2023-04-21T01:43:34;100884.76;;;7.85;52.64
50484;BME280;36409;52.168;20.878;2023-04-21T01:46:07;100875.17;;;7.78;52.62
50484;BME280;36409;52.168;20.878;2023-04-21T01:48:40;100881.23;;;7.74;52.76
50484;BME280;36409;52.168;20.878;2023-04-21T01:51:13;100885.55;;;7.70;53.02
50484;BME280;36409;52.168;20.878;2023-04-21T01:53:49;100888.97;;;7.68;52.85
50484;BME280;36409;52.168;20.878;2023-04-21T01:56:21;100891.58;;;7.65;53.16
50484;BME280;36409;52.168;20.878;2023-04-21T01:58:54;100889.80;;;7.62;53.12
50484;BME280;36409;52.168;20.878;2023-04-21T02:01:27;100888.92;;;7.60;53.42
50484;BME280;36409;52.168;20.878;2023-04-21T02:04:00;100884.58;;;7.57;53.43
50484;BME280;36409;52.168;20.878;2023-04-21T02:06:33;100883.70;;;7.55;53.36
50484;BME280;36409;52.168;20.878;2023-04-21T02:09:05;100888.02;;;7.52;53.41
50484;BME280;36409;52.168;20.878;2023-04-21T02:11:39;100887.98;;;7.47;53.44
50484;BME280;36409;52.168;20.878;2023-04-21T02:14:11;100886.20;;;7.43;53.76
50484;BME280;36409;52.168;20.878;2023-04-21T02:16:44;100882.73;;;7.38;53.46
50484;BME280;36409;52.168;20.878;2023-04-21T02:19:17;100883.55;;;7.34;53.64
50484;BME280;36409;52.168;20.878;2023-04-21T02:21:50;100881.78;;;7.28;53.84
50484;BME280;36409;52.168;20.878;2023-04-21T02:24:24;100882.60;;;7.22;53.62
50484;BME280;36409;52.168;20.878;2023-04-21T02:26:57;100879.08;;;7.16;53.77
50484;BME280;36409;52.168;20.878;2023-04-21T02:29:31;100881.64;;;7.09;54.08
50484;BME280;36409;52.168;20.878;2023-04-21T02:32:03;100884.20;;;7.03;54.06
50484;BME280;36409;52.168;20.878;2023-04-21T02:34:40;100878.94;;;6.97;54.14
50484;BME280;36409;52.168;20.878;2023-04-21T02:37:13;100879.79;;;6.94;54.24
50484;BME280;36409;52.168;20.878;2023-04-21T02:39:45;100881.50;;;6.92;54.34
50484;BME280;36409;52.168;20.878;2023-04-21T02:42:17;100888.39;;;6.89;54.39
50484;BME280;36409;52.168;20.878;2023-04-21T02:44:51;100882.27;;;6.84;54.61
50484;BME280;36409;52.168;20.878;2023-04-21T02:47:23;100883.97;;;6.80;54.47
50484;BME280;36409;52.168;20.878;2023-04-21T02:49:56;100887.38;;;6.76;55.20
50484;BME280;36409;52.168;20.878;2023-04-21T02:52:28;100878.70;;;6.69;54.75
50484;BME280;36409;52.168;20.878;2023-04-21T02:55:00;100877.77;;;6.64;54.70
50484;BME280;36409;52.168;20.878;2023-04-21T02:57:33;100878.58;;;6.58;55.15
50484;BME280;36409;52.168;20.878;2023-04-21T03:00:08;100883.71;;;6.52;55.14
50484;BME280;36409;52.168;20.878;2023-04-21T03:02:41;100878.48;;;6.49;55.30
50484;BME280;36409;52.168;20.878;2023-04-21T03:05:14;100875.80;;;6.43;55.31
50484;BME280;36409;52.168;20.878;2023-04-21T03:07:47;100877.50;;;6.39;55.43
50484;BME280;36409;52.168;20.878;2023-04-21T03:10:19;100871.37;;;6.32;55.31
50484;BME280;36409;52.168;20.878;2023-04-21T03:12:52;100882.53;;;6.25;55.55
50484;BME280;36409;52.168;20.878;2023-04-21T03:15:26;100879.05;;;6.22;55.03
50484;BME280;36409;52.168;20.878;2023-04-21T03:17:59;100878.11;;;6.16;55.90
50484;BME280;36409;52.168;20.878;2023-04-21T03:20:33;100884.14;;;6.15;55.58
50484;BME280;36409;52.168;20.878;2023-04-21T03:23:06;100874.56;;;6.10;55.41
50484;BME280;36409;52.168;20.878;2023-04-21T03:25:38;100874.51;;;6.05;55.71
50484;BME280;36409;52.168;20.878;2023-04-21T03:28:11;100875.34;;;6.01;56.06
50484;BME280;36409;52.168;20.878;2023-04-21T03:30:43;100874.37;;;5.97;56.03
50484;BME280;36409;52.168;20.878;2023-04-21T03:33:15;100876.05;;;5.92;56.06
50484;BME280;36409;52.168;20.878;2023-04-21T03:35:47;100875.15;;;5.88;55.99
50484;BME280;36409;52.168;20.878;2023-04-21T03:38:20;100880.29;;;5.87;56.21
50484;BME280;36409;52.168;20.878;2023-04-21T03:40:52;100873.36;;;5.84;56.12
50484;BME280;36409;52.168;20.878;2023-04-21T03:43:24;100885.41;;;5.82;56.59
50484;BME280;36409;52.168;20.878;2023-04-21T03:45:56;100879.33;;;5.79;56.53
50484;BME280;36409;52.168;20.878;2023-04-21T03:48:33;100881.02;;;5.77;56.54
50484;BME280;36409;52.168;20.878;2023-04-21T03:51:06;100877.58;;;5.76;57.07
50484;BME280;36409;52.168;20.878;2023-04-21T03:53:38;100888.79;;;5.77;56.86
50484;BME280;36409;52.168;20.878;2023-04-21T03:56:10;100885.39;;;5.79;57.17
50484;BME280;36409;52.168;20.878;2023-04-21T03:58:43;100886.30;;;5.83;56.69
50484;BME280;36409;52.168;20.878;2023-04-21T04:01:17;100886.36;;;5.87;56.96
50484;BME280;36409;52.168;20.878;2023-04-21T04:03:51;100895.95;;;5.95;56.94
50484;BME280;36409;52.168;20.878;2023-04-21T04:06:24;100893.45;;;5.99;57.19
50484;BME280;36409;52.168;20.878;2023-04-21T04:08:58;100901.33;;;6.09;57.41
50484;BME280;36409;52.168;20.878;2023-04-21T04:11:30;100894.50;;;6.14;57.60
50484;BME280;36409;52.168;20.878;2023-04-21T04:14:05;100896.30;;;6.21;57.48
50484;BME280;36409;52.168;20.878;2023-04-21T04:16:40;100899.05;;;6.33;57.52
50484;BME280;36409;52.168;20.878;2023-04-21T04:19:12;100903.52;;;6.45;57.49
50484;BME280;36409;52.168;20.878;2023-04-21T04:21:46;100904.52;;;6.58;57.72
50484;BME280;36409;52.168;20.878;2023-04-21T04:24:19;100903.08;;;6.88;57.43
50484;BME280;36409;52.168;20.878;2023-04-21T04:26:51;100897.06;;;8.21;57.04
50484;BME280;36409;52.168;20.878;2023-04-21T04:29:24;100902.46;;;9.35;55.90
50484;BME280;36409;52.168;20.878;2023-04-21T04:31:57;100902.47;;;9.18;56.00
50484;BME280;36409;52.168;20.878;2023-04-21T04:34:32;100899.01;;;8.94;56.64
50484;BME280;36409;52.168;20.878;2023-04-21T04:37:07;100908.52;;;8.80;56.62
50484;BME280;36409;52.168;20.878;2023-04-21T04:39:41;100914.59;;;8.79;56.05
50484;BME280;36409;52.168;20.878;2023-04-21T04:42:14;100908.48;;;9.79;55.40
50484;BME280;36409;52.168;20.878;2023-04-21T04:44:49;100907.24;;;11.79;54.32
50484;BME280;36409;52.168;20.878;2023-04-21T04:47:24;100897.76;;;13.58;54.39
50484;BME280;36409;52.168;20.878;2023-04-21T04:49:57;100896.16;;;15.16;52.57
50484;BME280;36409;52.168;20.878;2023-04-21T04:52:29;100888.87;;;16.55;51.57
50484;BME280;36409;52.168;20.878;2023-04-21T04:55:03;100886.66;;;17.75;50.62
50484;BME280;36409;52.168;20.878;2023-04-21T04:57:35;100895.42;;;18.71;49.67
50484;BME280;36409;52.168;20.878;2023-04-21T05:00:11;100893.80;;;19.74;48.25
50484;BME280;36409;52.168;20.878;2023-04-21T05:02:44;100891.20;;;20.70;48.11
50484;BME280;36409;52.168;20.878;2023-04-21T05:05:17;100891.36;;;21.39;47.10
50484;BME280;36409;52.168;20.878;2023-04-21T05:07:50;100895.81;;;21.03;46.89
50484;BME280;36409;52.168;20.878;2023-04-21T05:10:22;100891.88;;;20.18;46.44
50484;BME280;36409;52.168;20.878;2023-04-21T05:12:54;100899.75;;;18.95;46.57
50484;BME280;36409;52.168;20.878;2023-04-21T05:15:26;100896.19;;;18.04;45.91
50484;BME280;36409;52.168;20.878;2023-04-21T05:18:01;100894.08;;;19.05;45.04
50484;BME280;36409;52.168;20.878;2023-04-21T05:20:33;100886.19;;;20.45;43.83
50484;BME280;36409;52.168;20.878;2023-04-21T05:23:06;100886.73;;;21.78;42.78
50484;BME280;36409;52.168;20.878;2023-04-21T05:25:38;100889.23;;;23.09;42.27
50484;BME280;36409;52.168;20.878;2023-04-21T05:28:10;100891.47;;;23.76;40.86
50484;BME280;36409;52.168;20.878;2023-04-21T05:30:42;100889.27;;;24.41;40.30
50484;BME280;36409;52.168;20.878;2023-04-21T05:33:15;100882.73;;;25.14;39.93
50484;BME280;36409;52.168;20.878;2023-04-21T05:35:48;100894.45;;;24.71;39.84
50484;BME280;36409;52.168;20.878;2023-04-21T05:38:21;100903.95;;;23.75;39.60
50484;BME280;36409;52.168;20.878;2023-04-21T05:40:54;100895.81;;;22.87;39.49
50484;BME280;36409;52.168;20.878;2023-04-21T05:43:27;100898.58;;;22.37;38.64
50484;BME280;36409;52.168;20.878;2023-04-21T05:45:59;100897.38;;;21.25;39.08
50484;BME280;36409;52.168;20.878;2023-04-21T05:48:34;100898.11;;;20.36;39.74
50484;BME280;36409;52.168;20.878;2023-04-21T05:51:23;100901.76;;;20.14;39.35
50484;BME280;36409;52.168;20.878;2023-04-21T05:53:56;100895.66;;;20.12;39.39
50484;BME280;36409;52.168;20.878;2023-04-21T05:56:29;100890.13;;;21.11;39.01
50484;BME280;36409;52.168;20.878;2023-04-21T05:59:03;100892.77;;;21.97;38.56
50484;BME280;36409;52.168;20.878;2023-04-21T06:01:37;100885.97;;;22.73;37.06
50484;BME280;36409;52.168;20.878;2023-04-21T06:04:09;100893.68;;;22.78;36.94
50484;BME280;36409;52.168;20.878;2023-04-21T06:06:43;100884.56;;;21.68;37.39
50484;BME280;36409;52.168;20.878;2023-04-21T06:09:15;100891.42;;;20.65;37.95
50484;BME280;36409;52.168;20.878;2023-04-21T06:11:47;100892.70;;;19.79;37.82
50484;BME280;36409;52.168;20.878;2023-04-21T06:14:20;100891.91;;;18.92;38.31
50484;BME280;36409;52.168;20.878;2023-04-21T06:16:52;100887.63;;;18.21;38.58
50484;BME280;36409;52.168;20.878;2023-04-21T06:19:24;100893.24;;;17.63;38.50
50484;BME280;36409;52.168;20.878;2023-04-21T06:21:58;100888.83;;;17.11;38.77
50484;BME280;36409;52.168;20.878;2023-04-21T06:24:33;100889.19;;;16.72;39.13
50484;BME280;36409;52.168;20.878;2023-04-21T06:27:10;100889.19;;;16.44;39.53
50484;BME280;36409;52.168;20.878;2023-04-21T06:29:43;100892.24;;;16.30;39.93
50484;BME280;36409;52.168;20.878;2023-04-21T06:32:16;100893.26;;;16.54;39.86
50484;BME280;36409;52.168;20.878;2023-04-21T06:34:49;100890.15;;;16.41;39.32
50484;BME280;36409;52.168;20.878;2023-04-21T06:37:24;100894.77;;;16.33;39.70
50484;BME280;36409;52.168;20.878;2023-04-21T06:39:56;100890.27;;;17.22;39.14
50484;BME280;36409;52.168;20.878;2023-04-21T06:42:28;100886.59;;;19.57;37.64
50484;BME280;36409;52.168;20.878;2023-04-21T06:45:01;100882.59;;;20.84;37.01
50484;BME280;36409;52.168;20.878;2023-04-21T06:47:33;100872.16;;;21.85;36.39
50484;BME280;36409;52.168;20.878;2023-04-21T06:50:07;100876.40;;;23.01;35.18
50484;BME280;36409;52.168;20.878;2023-04-21T06:52:40;100875.94;;;23.39;34.93
50484;BME280;36409;52.168;20.878;2023-04-21T06:55:12;100876.45;;;23.60;35.02
50484;BME280;36409;52.168;20.878;2023-04-21T06:57:45;100868.70;;;23.11;34.92
50484;BME280;36409;52.168;20.878;2023-04-21T07:00:17;100867.14;;;22.92;34.43
50484;BME280;36409;52.168;20.878;2023-04-21T07:02:50;100871.75;;;23.05;34.12
50484;BME280;36409;52.168;20.878;2023-04-21T07:05:22;100875.83;;;23.26;33.89
50484;BME280;36409;52.168;20.878;2023-04-21T07:07:55;100870.87;;;22.42;33.73
50484;BME280;36409;52.168;20.878;2023-04-21T07:10:32;100876.27;;;22.72;33.31
50484;BME280;36409;52.168;20.878;2023-04-21T07:13:04;100876.91;;;23.82;32.73
50484;BME280;36409;52.168;20.878;2023-04-21T07:15:39;100868.66;;;24.57;32.53
50484;BME280;36409;52.168;20.878;2023-04-21T07:18:12;100872.44;;;24.95;31.62
50484;BME280;36409;52.168;20.878;2023-04-21T07:20:44;100880.25;;;24.98;31.70
50484;BME280;36409;52.168;20.878;2023-04-21T07:23:17;100865.83;;;24.46;31.03
50484;BME280;36409;52.168;20.878;2023-04-21T07:25:49;100871.69;;;23.51;31.42
50484;BME280;36409;52.168;20.878;2023-04-21T07:28:22;100877.65;;;22.79;32.40
50484;BME280;36409;52.168;20.878;2023-04-21T07:30:54;100876.61;;;22.82;32.00
50484;BME280;36409;52.168;20.878;2023-04-21T07:33:26;100872.25;;;22.65;31.93
50484;BME280;36409;52.168;20.878;2023-04-21T07:35:59;100878.63;;;21.45;32.45
50484;BME280;36409;52.168;20.878;2023-04-21T07:38:34;100875.59;;;20.45;32.72
50484;BME280;36409;52.168;20.878;2023-04-21T07:41:08;100875.59;;;19.67;33.20
50484;BME280;36409;52.168;20.878;2023-04-21T07:43:41;100885.84;;;19.33;33.95
50484;BME280;36409;52.168;20.878;2023-04-21T07:46:13;100877.30;;;19.88;33.82
50484;BME280;36409;52.168;20.878;2023-04-21T07:48:45;100877.17;;;20.30;33.67
50484;BME280;36409;52.168;20.878;2023-04-21T07:51:20;100866.08;;;20.41;33.62
50484;BME280;36409;52.168;20.878;2023-04-21T07:53:53;100862.88;;;20.71;32.40
50484;BME280;36409;52.168;20.878;2023-04-21T07:56:26;100857.37;;;21.97;31.98
50484;BME280;36409;52.168;20.878;2023-04-21T07:59:01;100866.77;;;21.18;32.67
50484;BME280;36409;52.168;20.878;2023-04-21T08:01:38;100854.28;;;21.88;31.41
50484;BME280;36409;52.168;20.878;2023-04-21T08:04:10;100857.58;;;22.74;31.53
50484;BME280;36409;52.168;20.878;2023-04-21T08:06:43;100856.63;;;22.59;31.68
50484;BME280;36409;52.168;20.878;2023-04-21T08:09:16;100861.69;;;22.79;31.27
50484;BME280;36409;52.168;20.878;2023-04-21T08:11:49;100850.70;;;22.70;31.31
50484;BME280;36409;52.168;20.878;2023-04-21T08:14:21;100851.19;;;21.96;31.54
50484;BME280;36409;52.168;20.878;2023-04-21T08:16:54;100857.30;;;21.47;32.24
50484;BME280;36409;52.168;20.878;2023-04-21T08:19:28;100857.55;;;21.07;32.18
50484;BME280;36409;52.168;20.878;2023-04-21T08:22:03;100853.83;;;20.94;32.16
50484;BME280;36409;52.168;20.878;2023-04-21T08:24:40;100854.83;;;20.72;32.34
50484;BME280;36409;52.168;20.878;2023-04-21T08:27:13;100858.98;;;20.22;32.54
50484;BME280;36409;52.168;20.878;2023-04-21T08:29:47;100858.08;;;20.04;33.01
50484;BME280;36409;52.168;20.878;2023-04-21T08:32:20;100859.13;;;20.00;32.90
50484;BME280;36409;52.168;20.878;2023-04-21T08:34:54;100852.39;;;20.12;33.17
50484;BME280;36409;52.168;20.878;2023-04-21T08:37:27;100849.66;;;20.32;33.14
50484;BME280;36409;52.168;20.878;2023-04-21T08:40:00;100849.74;;;20.31;32.53
50484;BME280;36409;52.168;20.878;2023-04-21T08:42:32;100862.42;;;20.24;32.20
50484;BME280;36409;52.168;20.878;2023-04-21T08:45:08;100850.67;;;20.30;32.94
50484;BME280;36409;52.168;20.878;2023-04-21T08:47:42;100846.17;;;20.68;32.95
50484;BME280;36409;52.168;20.878;2023-04-21T08:50:14;100841.63;;;21.07;32.85
50484;BME280;36409;52.168;20.878;2023-04-21T08:52:46;100844.75;;;21.33;32.99
50484;BME280;36409;52.168;20.878;2023-04-21T08:55:19;100846.43;;;21.52;32.38
50484;BME280;36409;52.168;20.878;2023-04-21T08:57:52;100840.03;;;21.56;32.54
50484;BME280;36409;52.168;20.878;2023-04-21T09:00:25;100838.97;;;21.60;32.32
50484;BME280;36409;52.168;20.878;2023-04-21T09:02:59;100840.34;;;21.67;32.12
50484;BME280;36409;52.168;20.878;2023-04-21T09:05:35;100829.84;;;21.82;32.20
50484;BME280;36409;52.168;20.878;2023-04-21T09:08:13;100824.71;;;21.95;32.07
50484;BME280;36409;52.168;20.878;2023-04-21T09:10:48;100827.89;;;22.33;32.49
50484;BME280;36409;52.168;20.878;2023-04-21T09:13:31;100828.00;;;22.48;32.06
50484;BME280;36409;52.168;20.878;2023-04-21T09:16:05;100830.66;;;22.48;31.38
50484;BME280;36409;52.168;20.878;2023-04-21T09:18:46;100819.25;;;22.46;30.57
50484;BME280;36409;52.168;20.878;2023-04-21T09:21:19;100831.94;;;22.41;30.66
50484;BME280;36409;52.168;20.878;2023-04-21T09:23:53;100825.13;;;22.35;30.61
50484;BME280;36409;52.168;20.878;2023-04-21T09:26:25;100828.34;;;22.42;30.89
50484;BME280;36409;52.168;20.878;2023-04-21T09:28:57;100818.03;;;22.35;30.82
50484;BME280;36409;52.168;20.878;2023-04-21T09:31:35;100823.16;;;22.71;30.69
50484;BME280;36409;52.168;20.878;2023-04-21T09:34:18;100814.27;;;22.86;30.50
50484;BME280;36409;52.168;20.878;2023-04-21T09:36:59;100815.19;;;23.01;30.42
50484;BME280;36409;52.168;20.878;2023-04-21T09:39:32;100816.06;;;23.16;30.62
50484;BME280;36409;52.168;20.878;2023-04-21T09:42:29;100820.09;;;23.23;29.64
50484;BME280;36409;52.168;20.878;2023-04-21T09:45:02;100811.58;;;23.17;30.12
50484;BME280;36409;52.168;20.878;2023-04-21T09:47:40;100809.16;;;22.97;30.14
50484;BME280;36409;52.168;20.878;2023-04-21T09:50:13;100805.10;;;23.06;30.00
50484;BME280;36409;52.168;20.878;2023-04-21T09:52:51;100811.83;;;22.97;29.80
50484;BME280;36409;52.168;20.878;2023-04-21T09:55:28;100799.79;;;22.76;29.30
50484;BME280;36409;52.168;20.878;2023-04-21T09:58:03;100796.39;;;22.74;29.75
50484;BME280;36409;52.168;20.878;2023-04-21T10:00:40;100798.28;;;22.72;29.99
50484;BME280;36409;52.168;20.878;2023-04-21T10:03:12;100806.83;;;22.77;29.95
50484;BME280;36409;52.168;20.878;2023-04-21T10:05:46;100799.79;;;22.76;29.69
50484;BME280;36409;52.168;20.878;2023-04-21T10:08:19;100794.67;;;22.73;29.43
50484;BME280;36409;52.168;20.878;2023-04-21T10:10:56;100794.84;;;22.70;29.86
50484;BME280;36409;52.168;20.878;2023-04-21T10:13:29;100780.65;;;22.85;29.95
50484;BME280;36409;52.168;20.878;2023-04-21T10:16:07;100783.98;;;23.03;29.53
50484;BME280;36409;52.168;20.878;2023-04-21T10:18:43;100777.27;;;23.12;29.33
50484;BME280;36409;52.168;20.878;2023-04-21T10:21:19;100784.30;;;23.13;29.13
50484;BME280;36409;52.168;20.878;2023-04-21T10:23:55;100776.42;;;23.11;28.81
50484;BME280;36409;52.168;20.878;2023-04-21T10:26:34;100776.28;;;22.98;29.32
50484;BME280;36409;52.168;20.878;2023-04-21T10:29:07;100765.84;;;23.10;29.37
50484;BME280;36409;52.168;20.878;2023-04-21T10:31:51;100768.75;;;23.36;29.21
50484;BME280;36409;52.168;20.878;2023-04-21T10:34:35;100759.63;;;23.25;28.95
50484;BME280;36409;52.168;20.878;2023-04-21T10:37:28;100760.31;;;22.98;28.65
50484;BME280;36409;52.168;20.878;2023-04-21T10:40:05;100751.31;;;23.01;29.06
50484;BME280;36409;52.168;20.878;2023-04-21T10:42:41;100763.39;;;23.07;28.85
50484;BME280;36409;52.168;20.878;2023-04-21T10:45:14;100753.23;;;23.13;28.49
50484;BME280;36409;52.168;20.878;2023-04-21T10:47:47;100756.53;;;23.03;28.40
50484;BME280;36409;52.168;20.878;2023-04-21T10:50:23;100757.75;;;22.97;28.96
50484;BME280;36409;52.168;20.878;2023-04-21T10:53:09;100755.20;;;23.10;28.66
50484;BME280;36409;52.168;20.878;2023-04-21T10:55:41;100753.87;;;23.03;28.57
50484;BME280;36409;52.168;20.878;2023-04-21T10:58:24;100750.89;;;22.93;28.53
50484;BME280;36409;52.168;20.878;2023-04-21T11:00:57;100735.66;;;22.80;28.00
50484;BME280;36409;52.168;20.878;2023-04-21T11:03:35;100735.31;;;22.87;28.83
50484;BME280;36409;52.168;20.878;2023-04-21T11:06:17;100737.12;;;23.01;28.93
50484;BME280;36409;52.168;20.878;2023-04-21T11:08:57;100739.30;;;22.94;27.86
50484;BME280;36409;52.168;20.878;2023-04-21T11:11:29;100728.40;;;22.54;28.27
50484;BME280;36409;52.168;20.878;2023-04-21T11:14:04;100726.08;;;22.47;28.17
50484;BME280;36409;52.168;20.878;2023-04-21T11:16:42;100721.03;;;22.43;28.45
50484;BME280;36409;52.168;20.878;2023-04-21T11:19:16;100720.02;;;22.45;28.15
50484;BME280;36409;52.168;20.878;2023-04-21T11:21:50;100716.31;;;22.48;28.32
50484;BME280;36409;52.168;20.878;2023-04-21T11:24:22;100717.59;;;22.57;28.47
50484;BME280;36409;52.168;20.878;2023-04-21T11:26:55;100708.28;;;22.64;28.35
50484;BME280;36409;52.168;20.878;2023-04-21T11:29:29;100700.06;;;22.83;28.94
50484;BME280;36409;52.168;20.878;2023-04-21T11:32:06;100693.02;;;22.82;28.99
50484;BME280;36409;52.168;20.878;2023-04-21T11:34:39;100697.31;;;22.99;28.65
50484;BME280;36409;52.168;20.878;2023-04-21T11:37:16;100693.98;;;23.10;28.44
50484;BME280;36409;52.168;20.878;2023-04-21T11:39:56;100684.97;;;23.12;28.17
50484;BME280;36409;52.168;20.878;2023-04-21T11:42:30;100681.83;;;23.06;27.95
50484;BME280;36409;52.168;20.878;2023-04-21T11:45:03;100677.08;;;22.96;27.88
50484;BME280;36409;52.168;20.878;2023-04-21T11:47:36;100683.89;;;22.86;27.89
50484;BME280;36409;52.168;20.878;2023-04-21T11:50:10;100681.05;;;22.89;28.24
50484;BME280;36409;52.168;20.878;2023-04-21T11:52:42;100683.70;;;22.89;28.25
50484;BME280;36409;52.168;20.878;2023-04-21T11:55:16;100688.93;;;22.76;27.85
50484;BME280;36409;52.168;20.878;2023-04-21T11:57:50;100688.61;;;22.66;27.82
50484;BME280;36409;52.168;20.878;2023-04-21T12:00:23;100685.67;;;22.57;28.14
50484;BME280;36409;52.168;20.878;2023-04-21T12:02:56;100671.28;;;22.45;27.48
50484;BME280;36409;52.168;20.878;2023-04-21T12:05:35;100671.95;;;22.18;27.25
50484;BME280;36409;52.168;20.878;2023-04-21T12:08:13;100668.29;;;22.04;27.71
50484;BME280;36409;52.168;20.878;2023-04-21T12:10:47;100668.63;;;21.98;28.06
50484;BME280;36409;52.168;20.878;2023-04-21T12:13:23;100671.78;;;22.05;27.68
50484;BME280;36409;52.168;20.878;2023-04-21T12:18:29;100663.00;;;22.19;28.12
50484;BME280;36409;52.168;20.878;2023-04-21T12:21:06;100666.88;;;22.13;27.70
50484;BME280;36409;52.168;20.878;2023-04-21T12:23:39;100659.67;;;22.15;27.82
50484;BME280;36409;52.168;20.878;2023-04-21T12:26:12;100653.52;;;22.15;27.63
50484;BME280;36409;52.168;20.878;2023-04-21T12:28:45;100651.75;;;22.30;27.75
50484;BME280;36409;52.168;20.878;2023-04-21T12:31:19;100644.55;;;22.32;28.23
50484;BME280;36409;52.168;20.878;2023-04-21T12:33:52;100640.00;;;22.34;27.84
50484;BME280;36409;52.168;20.878;2023-04-21T12:36:24;100640.05;;;22.18;27.47
50484;BME280;36409;52.168;20.878;2023-04-21T12:38:57;100638.62;;;21.96;27.80
50484;BME280;36409;52.168;20.878;2023-04-21T12:41:29;100643.12;;;21.80;27.29
50484;BME280;36409;52.168;20.878;2023-04-21T12:44:03;100641.32;;;21.64;27.43
50484;BME280;36409;52.168;20.878;2023-04-21T12:46:37;100644.37;;;21.56;27.53
50484;BME280;36409;52.168;20.878;2023-04-21T12:49:10;100630.41;;;21.53;27.71
50484;BME280;36409;52.168;20.878;2023-04-21T12:51:42;100637.96;;;21.44;27.36
50484;BME280;36409;52.168;20.878;2023-04-21T12:54:15;100624.17;;;21.38;27.77
50484;BME280;36409;52.168;20.878;2023-04-21T12:56:47;100621.61;;;21.36;27.87
50484;BME280;36409;52.168;20.878;2023-04-21T12:59:20;100627.34;;;21.28;27.76
50484;BME280;36409;52.168;20.878;2023-04-21T13:01:52;100622.61;;;21.18;27.78
50484;BME280;36409;52.168;20.878;2023-04-21T13:04:25;100616.34;;;21.03;27.19
50484;BME280;36409;52.168;20.878;2023-04-21T13:06:58;100616.53;;;21.00;27.39
50484;BME280;36409;52.168;20.878;2023-04-21T13:09:31;100613.26;;;20.94;27.64
50484;BME280;36409;52.168;20.878;2023-04-21T13:12:05;100616.41;;;20.85;27.37
50484;BME280;36409;52.168;20.878;2023-04-21T13:14:38;100619.59;;;20.92;27.90
50484;BME280;36409;52.168;20.878;2023-04-21T13:17:10;100616.94;;;20.92;27.64
50484;BME280;36409;52.168;20.878;2023-04-21T13:19:43;100609.14;;;20.89;27.47
50484;BME280;36409;52.168;20.878;2023-04-21T13:22:16;100597.91;;;20.83;27.56